sensor_id;sensor_type;location;lat;lon;timestamp;temperature;humidity
30134;DHT22;16946;49.984;10.672;2023-05-06T00:00:24;12.90;99.90
30134;DHT22;16946;49.984;10.672;2023-05-06T00:00:54;13.00;99.90
30134;DHT22;16946;49.984;10.672;2023-05-06T00:01:25;13.00;99.90
30134;DHT22;16946;49.984;10.672;2023-05-06T00:01:56;13.00;99.90
30134;DHT22;16946;49.984;10.672;2023-05-06T00:02:26;13.00;99.90
30134;DHT22;16946;49.984;10.672;2023-05-06T00:02:58;13.00;99.90
30134;DHT22;16946;49.984;10.672;2023-05-06T00:03:31;13.00;99.90
30134;DHT22;16946;49.984;10.672;2023-05-06T00:04:02;13.10;99.90
30134;DHT22;16946;49.984;10.672;2023-05-06T00:04:33;13.10;99.90
30134;DHT22;16946;49.984;10.672;2023-05-06T00:05:03;13.10;99.90
30134;DHT22;16946;49.984;10.672;2023-05-06T00:05:34;13.10;99.90
30134;DHT22;16946;49.984;10.672;2023-05-06T00:06:05;13.10;99.90
30134;DHT22;16946;49.984;10.672;2023-05-06T00:06:36;13.00;99.90
30134;DHT22;16946;49.984;10.672;2023-05-06T00:07:07;13.00;99.90
30134;DHT22;16946;49.984;10.672;2023-05-06T00:07:37;13.00;99.90
30134;DHT22;16946;49.984;10.672;2023-05-06T00:08:08;12.90;99.90
30134;DHT22;16946;49.984;10.672;2023-05-06T00:08:39;12.90;99.90
30134;DHT22;16946;49.984;10.672;2023-05-06T00:09:09;12.90;99.90
30134;DHT22;16946;49.984;10.672;2023-05-06T00:09:40;12.80;99.90
30134;DHT22;16946;49.984;10.672;2023-05-06T00:10:11;12.80;99.90
30134;DHT22;16946;49.984;10.672;2023-05-06T00:10:41;12.70;99.90
30134;DHT22;16946;49.984;10.672;2023-05-06T00:11:12;12.70;99.90
30134;DHT22;16946;49.984;10.672;2023-05-06T00:11:43;12.80;99.90
30134;DHT22;16946;49.984;10.672;2023-05-06T00:12:15;12.80;99.90
30134;DHT22;16946;49.984;10.672;2023-05-06T00:12:45;12.80;99.90
30134;DHT22;16946;49.984;10.672;2023-05-06T00:13:16;12.80;99.90
30134;DHT22;16946;49.984;10.672;2023-05-06T00:13:46;12.80;99.90
30134;DHT22;16946;49.984;10.672;2023-05-06T00:14:17;12.80;99.90
30134;DHT22;16946;49.984;10.672;2023-05-06T00:14:47;12.80;99.90
30134;DHT22;16946;49.984;10.672;2023-05-06T00:15:18;12.80;99.90
30134;DHT22;16946;49.984;10.672;2023-05-06T00:15:48;12.90;99.90
30134;DHT22;16946;49.984;10.672;2023-05-06T00:16:19;12.90;99.90
30134;DHT22;16946;49.984;10.672;2023-05-06T00:16:49;12.90;99.90
30134;DHT22;16946;49.984;10.672;2023-05-06T00:17:20;12.90;99.90
30134;DHT22;16946;49.984;10.672;2023-05-06T00:17:50;13.00;99.90
30134;DHT22;16946;49.984;10.672;2023-05-06T00:18:21;13.00;99.90
30134;DHT22;16946;49.984;10.672;2023-05-06T00:18:53;13.00;99.90
30134;DHT22;16946;49.984;10.672;2023-05-06T00:19:23;13.00;99.90
30134;DHT22;16946;49.984;10.672;2023-05-06T00:19:54;13.00;99.90
30134;DHT22;16946;49.984;10.672;2023-05-06T00:20:26;13.00;99.90
30134;DHT22;16946;49.984;10.672;2023-05-06T00:20:56;13.00;99.90
30134;DHT22;16946;49.984;10.672;2023-05-06T00:21:27;13.00;99.90
30134;DHT22;16946;49.984;10.672;2023-05-06T00:21:58;13.10;99.90
30134;DHT22;16946;49.984;10.672;2023-05-06T00:22:28;13.10;99.90
30134;DHT22;16946;49.984;10.672;2023-05-06T00:22:59;13.10;99.90
30134;DHT22;16946;49.984;10.672;2023-05-06T00:23:29;13.10;99.90
30134;DHT22;16946;49.984;10.672;2023-05-06T00:24:00;13.10;99.90
30134;DHT22;16946;49.984;10.672;2023-05-06T00:24:30;13.10;99.90
30134;DHT22;16946;49.984;10.672;2023-05-06T00:25:02;13.20;99.90
30134;DHT22;16946;49.984;10.672;2023-05-06T00:25:32;13.20;99.90
30134;DHT22;16946;49.984;10.672;2023-05-06T00:26:03;13.20;99.90
30134;DHT22;16946;49.984;10.672;2023-05-06T00:26:33;13.20;99.90
30134;DHT22;16946;49.984;10.672;2023-05-06T00:27:04;13.20;99.90
30134;DHT22;16946;49.984;10.672;2023-05-06T00:27:34;13.20;99.90
30134;DHT22;16946;49.984;10.672;2023-05-06T00:28:05;13.20;99.90
30134;DHT22;16946;49.984;10.672;2023-05-06T00:28:36;13.20;99.90
30134;DHT22;16946;49.984;10.672;2023-05-06T00:29:06;13.20;99.90
30134;DHT22;16946;49.984;10.672;2023-05-06T00:29:37;13.30;99.90
30134;DHT22;16946;49.984;10.672;2023-05-06T00:30:08;13.30;99.90
30134;DHT22;16946;49.984;10.672;2023-05-06T00:30:38;13.30;99.90
30134;DHT22;16946;49.984;10.672;2023-05-06T00:31:09;13.30;99.90
30134;DHT22;16946;49.984;10.672;2023-05-06T00:31:40;13.30;99.90
30134;DHT22;16946;49.984;10.672;2023-05-06T00:32:10;13.30;99.90
30134;DHT22;16946;49.984;10.672;2023-05-06T00:32:41;13.30;99.90
30134;DHT22;16946;49.984;10.672;2023-05-06T00:33:11;13.20;99.90
30134;DHT22;16946;49.984;10.672;2023-05-06T00:33:42;13.30;99.90
30134;DHT22;16946;49.984;10.672;2023-05-06T00:34:13;13.30;99.90
30134;DHT22;16946;49.984;10.672;2023-05-06T00:34:44;13.30;99.90
30134;DHT22;16946;49.984;10.672;2023-05-06T00:35:14;13.30;99.90
30134;DHT22;16946;49.984;10.672;2023-05-06T00:35:45;13.30;99.90
30134;DHT22;16946;49.984;10.672;2023-05-06T00:36:15;13.20;99.90
30134;DHT22;16946;49.984;10.672;2023-05-06T00:36:46;13.20;99.90
30134;DHT22;16946;49.984;10.672;2023-05-06T00:37:17;13.10;99.90
30134;DHT22;16946;49.984;10.672;2023-05-06T00:37:56;13.10;99.90
30134;DHT22;16946;49.984;10.672;2023-05-06T00:38:27;13.10;99.90
30134;DHT22;16946;49.984;10.672;2023-05-06T00:38:57;13.10;99.90
30134;DHT22;16946;49.984;10.672;2023-05-06T00:39:28;13.10;99.90
30134;DHT22;16946;49.984;10.672;2023-05-06T00:39:59;13.10;99.90
30134;DHT22;16946;49.984;10.672;2023-05-06T00:40:30;13.10;99.90
30134;DHT22;16946;49.984;10.672;2023-05-06T00:41:00;13.10;99.90
30134;DHT22;16946;49.984;10.672;2023-05-06T00:41:32;13.10;99.90
30134;DHT22;16946;49.984;10.672;2023-05-06T00:42:03;13.10;99.90
30134;DHT22;16946;49.984;10.672;2023-05-06T00:42:33;13.10;99.90
30134;DHT22;16946;49.984;10.672;2023-05-06T00:43:04;13.10;99.90
30134;DHT22;16946;49.984;10.672;2023-05-06T00:43:35;13.10;99.90
30134;DHT22;16946;49.984;10.672;2023-05-06T00:44:05;13.10;99.90
30134;DHT22;16946;49.984;10.672;2023-05-06T00:44:36;13.20;99.90
30134;DHT22;16946;49.984;10.672;2023-05-06T00:45:06;13.20;99.90
30134;DHT22;16946;49.984;10.672;2023-05-06T00:45:37;13.20;99.90
30134;DHT22;16946;49.984;10.672;2023-05-06T00:46:09;13.20;99.90
30134;DHT22;16946;49.984;10.672;2023-05-06T00:46:41;13.20;99.90
30134;DHT22;16946;49.984;10.672;2023-05-06T00:47:12;13.20;99.90
30134;DHT22;16946;49.984;10.672;2023-05-06T00:47:43;13.20;99.90
30134;DHT22;16946;49.984;10.672;2023-05-06T00:48:15;13.10;99.90
30134;DHT22;16946;49.984;10.672;2023-05-06T00:48:46;13.10;99.90
30134;DHT22;16946;49.984;10.672;2023-05-06T00:49:16;13.10;99.90
30134;DHT22;16946;49.984;10.672;2023-05-06T00:49:47;13.10;99.90
30134;DHT22;16946;49.984;10.672;2023-05-06T00:50:18;13.10;99.90
30134;DHT22;16946;49.984;10.672;2023-05-06T00:50:49;13.10;99.90
30134;DHT22;16946;49.984;10.672;2023-05-06T00:51:20;13.10;99.90
30134;DHT22;16946;49.984;10.672;2023-05-06T00:51:51;13.10;99.90
30134;DHT22;16946;49.984;10.672;2023-05-06T00:52:23;13.00;99.90
30134;DHT22;16946;49.984;10.672;2023-05-06T00:52:53;13.00;99.90
30134;DHT22;16946;49.984;10.672;2023-05-06T00:53:25;13.00;99.90
30134;DHT22;16946;49.984;10.672;2023-05-06T00:53:56;13.00;99.90
30134;DHT22;16946;49.984;10.672;2023-05-06T00:54:27;13.00;99.90
30134;DHT22;16946;49.984;10.672;2023-05-06T00:54:59;13.00;99.90
30134;DHT22;16946;49.984;10.672;2023-05-06T00:55:30;13.00;99.90
30134;DHT22;16946;49.984;10.672;2023-05-06T00:56:01;13.00;99.90
30134;DHT22;16946;49.984;10.672;2023-05-06T00:56:32;13.10;99.90
30134;DHT22;16946;49.984;10.672;2023-05-06T00:57:03;13.10;99.90
30134;DHT22;16946;49.984;10.672;2023-05-06T00:57:34;13.10;99.90
30134;DHT22;16946;49.984;10.672;2023-05-06T00:58:05;13.10;99.90
30134;DHT22;16946;49.984;10.672;2023-05-06T00:58:35;13.10;99.90
30134;DHT22;16946;49.984;10.672;2023-05-06T00:59:07;13.00;99.90
30134;DHT22;16946;49.984;10.672;2023-05-06T00:59:37;13.00;99.90
30134;DHT22;16946;49.984;10.672;2023-05-06T01:00:09;13.00;99.90
30134;DHT22;16946;49.984;10.672;2023-05-06T01:00:41;13.00;99.90
30134;DHT22;16946;49.984;10.672;2023-05-06T01:01:11;12.90;99.90
30134;DHT22;16946;49.984;10.672;2023-05-06T01:01:42;12.90;99.90
30134;DHT22;16946;49.984;10.672;2023-05-06T01:02:13;13.00;99.90
30134;DHT22;16946;49.984;10.672;2023-05-06T01:02:43;13.00;99.90
30134;DHT22;16946;49.984;10.672;2023-05-06T01:03:14;13.00;99.90
30134;DHT22;16946;49.984;10.672;2023-05-06T01:03:45;13.00;99.90
30134;DHT22;16946;49.984;10.672;2023-05-06T01:04:16;13.00;99.90
30134;DHT22;16946;49.984;10.672;2023-05-06T01:04:46;13.10;99.90
30134;DHT22;16946;49.984;10.672;2023-05-06T01:05:19;13.10;99.90
30134;DHT22;16946;49.984;10.672;2023-05-06T01:05:57;13.10;99.90
30134;DHT22;16946;49.984;10.672;2023-05-06T01:06:36;13.20;99.90
30134;DHT22;16946;49.984;10.672;2023-05-06T01:07:20;13.20;99.90
30134;DHT22;16946;49.984;10.672;2023-05-06T01:08:12;13.20;99.90
30134;DHT22;16946;49.984;10.672;2023-05-06T01:10:00;13.20;99.90
30134;DHT22;16946;49.984;10.672;2023-05-06T01:11:28;13.20;99.90
30134;DHT22;16946;49.984;10.672;2023-05-06T01:13:17;13.20;99.90
30134;DHT22;16946;49.984;10.672;2023-05-06T01:13:54;13.20;99.90
30134;DHT22;16946;49.984;10.672;2023-05-06T01:14:45;13.10;99.90
30134;DHT22;16946;49.984;10.672;2023-05-06T01:15:35;13.10;99.90
30134;DHT22;16946;49.984;10.672;2023-05-06T01:16:09;13.10;99.90
30134;DHT22;16946;49.984;10.672;2023-05-06T01:16:41;13.00;99.90
30134;DHT22;16946;49.984;10.672;2023-05-06T01:17:12;13.00;99.90
30134;DHT22;16946;49.984;10.672;2023-05-06T01:17:45;12.90;99.90
30134;DHT22;16946;49.984;10.672;2023-05-06T01:18:21;12.80;99.90
30134;DHT22;16946;49.984;10.672;2023-05-06T01:18:53;12.80;99.90
30134;DHT22;16946;49.984;10.672;2023-05-06T01:19:35;12.70;99.90
30134;DHT22;16946;49.984;10.672;2023-05-06T01:20:06;12.60;99.90
30134;DHT22;16946;49.984;10.672;2023-05-06T01:20:40;12.60;99.90
30134;DHT22;16946;49.984;10.672;2023-05-06T01:21:12;12.50;99.90
30134;DHT22;16946;49.984;10.672;2023-05-06T01:21:45;12.50;99.90
30134;DHT22;16946;49.984;10.672;2023-05-06T01:22:17;12.50;99.90
30134;DHT22;16946;49.984;10.672;2023-05-06T01:22:49;12.40;99.90
30134;DHT22;16946;49.984;10.672;2023-05-06T01:23:20;12.40;99.90
30134;DHT22;16946;49.984;10.672;2023-05-06T01:23:53;12.40;99.90
30134;DHT22;16946;49.984;10.672;2023-05-06T01:24:34;12.40;99.90
30134;DHT22;16946;49.984;10.672;2023-05-06T01:25:05;12.40;99.90
30134;DHT22;16946;49.984;10.672;2023-05-06T01:25:36;12.40;99.90
30134;DHT22;16946;49.984;10.672;2023-05-06T01:26:07;12.40;99.90
30134;DHT22;16946;49.984;10.672;2023-05-06T01:26:37;12.40;99.90
30134;DHT22;16946;49.984;10.672;2023-05-06T01:27:09;12.40;99.90
30134;DHT22;16946;49.984;10.672;2023-05-06T01:27:40;12.40;99.90
30134;DHT22;16946;49.984;10.672;2023-05-06T01:28:11;12.40;99.90
30134;DHT22;16946;49.984;10.672;2023-05-06T01:28:42;12.40;99.90
30134;DHT22;16946;49.984;10.672;2023-05-06T01:29:12;12.40;99.90
30134;DHT22;16946;49.984;10.672;2023-05-06T01:29:44;12.50;99.90
30134;DHT22;16946;49.984;10.672;2023-05-06T01:30:16;12.50;99.90
30134;DHT22;16946;49.984;10.672;2023-05-06T01:30:56;12.40;99.90
30134;DHT22;16946;49.984;10.672;2023-05-06T01:31:43;12.30;99.90
30134;DHT22;16946;49.984;10.672;2023-05-06T01:33:03;12.40;99.90
30134;DHT22;16946;49.984;10.672;2023-05-06T01:34:37;12.30;99.90
30134;DHT22;16946;49.984;10.672;2023-05-06T01:36:20;12.40;99.90
30134;DHT22;16946;49.984;10.672;2023-05-06T01:37:16;12.40;99.90
30134;DHT22;16946;49.984;10.672;2023-05-06T01:38:16;12.40;99.90
30134;DHT22;16946;49.984;10.672;2023-05-06T01:39:09;12.30;99.90
30134;DHT22;16946;49.984;10.672;2023-05-06T01:39:40;12.30;99.90
30134;DHT22;16946;49.984;10.672;2023-05-06T01:40:14;12.30;99.90
30134;DHT22;16946;49.984;10.672;2023-05-06T01:40:47;12.30;99.90
30134;DHT22;16946;49.984;10.672;2023-05-06T01:41:20;12.30;99.90
30134;DHT22;16946;49.984;10.672;2023-05-06T01:41:55;12.30;99.90
30134;DHT22;16946;49.984;10.672;2023-05-06T01:42:26;12.20;99.90
30134;DHT22;16946;49.984;10.672;2023-05-06T01:42:59;12.20;99.90
30134;DHT22;16946;49.984;10.672;2023-05-06T01:43:36;12.20;99.90
30134;DHT22;16946;49.984;10.672;2023-05-06T01:44:08;12.20;99.90
30134;DHT22;16946;49.984;10.672;2023-05-06T01:44:40;12.20;99.90
30134;DHT22;16946;49.984;10.672;2023-05-06T01:45:14;12.20;99.90
30134;DHT22;16946;49.984;10.672;2023-05-06T01:45:46;12.20;99.90
30134;DHT22;16946;49.984;10.672;2023-05-06T01:46:23;12.20;99.90
30134;DHT22;16946;49.984;10.672;2023-05-06T01:46:55;12.30;99.90
30134;DHT22;16946;49.984;10.672;2023-05-06T01:47:25;12.30;99.90
30134;DHT22;16946;49.984;10.672;2023-05-06T01:47:56;12.30;99.90
30134;DHT22;16946;49.984;10.672;2023-05-06T01:48:29;12.30;99.90
30134;DHT22;16946;49.984;10.672;2023-05-06T01:49:03;12.30;99.90
30134;DHT22;16946;49.984;10.672;2023-05-06T01:49:35;12.40;99.90
30134;DHT22;16946;49.984;10.672;2023-05-06T01:50:06;12.40;99.90
30134;DHT22;16946;49.984;10.672;2023-05-06T01:50:37;12.40;99.90
30134;DHT22;16946;49.984;10.672;2023-05-06T01:51:08;12.40;99.90
30134;DHT22;16946;49.984;10.672;2023-05-06T01:51:38;12.40;99.90
30134;DHT22;16946;49.984;10.672;2023-05-06T01:52:09;12.30;99.90
30134;DHT22;16946;49.984;10.672;2023-05-06T01:52:39;12.30;99.90
30134;DHT22;16946;49.984;10.672;2023-05-06T01:53:10;12.30;99.90
30134;DHT22;16946;49.984;10.672;2023-05-06T01:53:41;12.20;99.90
30134;DHT22;16946;49.984;10.672;2023-05-06T01:54:11;12.20;99.90
30134;DHT22;16946;49.984;10.672;2023-05-06T01:54:42;12.20;99.90
30134;DHT22;16946;49.984;10.672;2023-05-06T01:55:12;12.20;99.90
30134;DHT22;16946;49.984;10.672;2023-05-06T01:55:43;12.20;99.90
30134;DHT22;16946;49.984;10.672;2023-05-06T01:56:13;12.30;99.90
30134;DHT22;16946;49.984;10.672;2023-05-06T01:56:44;12.20;99.90
30134;DHT22;16946;49.984;10.672;2023-05-06T01:57:14;12.20;99.90
30134;DHT22;16946;49.984;10.672;2023-05-06T01:57:45;12.30;99.90
30134;DHT22;16946;49.984;10.672;2023-05-06T01:58:15;12.30;99.90
30134;DHT22;16946;49.984;10.672;2023-05-06T01:58:46;12.30;99.90
30134;DHT22;16946;49.984;10.672;2023-05-06T01:59:16;12.30;99.90
30134;DHT22;16946;49.984;10.672;2023-05-06T01:59:47;12.30;99.90
30134;DHT22;16946;49.984;10.672;2023-05-06T02:00:18;12.40;99.90
30134;DHT22;16946;49.984;10.672;2023-05-06T02:00:48;12.40;99.90
30134;DHT22;16946;49.984;10.672;2023-05-06T02:01:19;12.40;99.90
30134;DHT22;16946;49.984;10.672;2023-05-06T02:01:49;12.40;99.90
30134;DHT22;16946;49.984;10.672;2023-05-06T02:02:20;12.40;99.90
30134;DHT22;16946;49.984;10.672;2023-05-06T02:02:50;12.40;99.90
30134;DHT22;16946;49.984;10.672;2023-05-06T02:03:21;12.50;99.90
30134;DHT22;16946;49.984;10.672;2023-05-06T02:03:52;12.50;99.90
30134;DHT22;16946;49.984;10.672;2023-05-06T02:04:22;12.50;99.90
30134;DHT22;16946;49.984;10.672;2023-05-06T02:04:53;12.40;99.90
30134;DHT22;16946;49.984;10.672;2023-05-06T02:05:24;12.40;99.90
30134;DHT22;16946;49.984;10.672;2023-05-06T02:05:55;12.50;99.90
30134;DHT22;16946;49.984;10.672;2023-05-06T02:06:26;12.50;99.90
30134;DHT22;16946;49.984;10.672;2023-05-06T02:06:57;12.60;99.90
30134;DHT22;16946;49.984;10.672;2023-05-06T02:07:27;12.60;99.90
30134;DHT22;16946;49.984;10.672;2023-05-06T02:07:58;12.60;99.90
30134;DHT22;16946;49.984;10.672;2023-05-06T02:08:29;12.60;99.90
30134;DHT22;16946;49.984;10.672;2023-05-06T02:08:59;12.70;99.90
30134;DHT22;16946;49.984;10.672;2023-05-06T02:09:30;12.70;99.90
30134;DHT22;16946;49.984;10.672;2023-05-06T02:10:01;12.80;99.90
30134;DHT22;16946;49.984;10.672;2023-05-06T02:10:31;12.80;99.90
30134;DHT22;16946;49.984;10.672;2023-05-06T02:11:02;12.80;99.90
30134;DHT22;16946;49.984;10.672;2023-05-06T02:11:32;12.80;99.90
30134;DHT22;16946;49.984;10.672;2023-05-06T02:12:03;12.70;99.90
30134;DHT22;16946;49.984;10.672;2023-05-06T02:12:34;12.70;99.90
30134;DHT22;16946;49.984;10.672;2023-05-06T02:13:05;12.70;99.90
30134;DHT22;16946;49.984;10.672;2023-05-06T02:13:35;12.70;99.90
30134;DHT22;16946;49.984;10.672;2023-05-06T02:14:06;12.60;99.90
30134;DHT22;16946;49.984;10.672;2023-05-06T02:14:36;12.60;99.90
30134;DHT22;16946;49.984;10.672;2023-05-06T02:15:07;12.50;99.90
30134;DHT22;16946;49.984;10.672;2023-05-06T02:15:38;12.40;99.90
30134;DHT22;16946;49.984;10.672;2023-05-06T02:16:09;12.40;99.90
30134;DHT22;16946;49.984;10.672;2023-05-06T02:16:40;12.40;99.90
30134;DHT22;16946;49.984;10.672;2023-05-06T02:17:10;12.30;99.90
30134;DHT22;16946;49.984;10.672;2023-05-06T02:17:41;12.30;99.90
30134;DHT22;16946;49.984;10.672;2023-05-06T02:18:12;12.30;99.90
30134;DHT22;16946;49.984;10.672;2023-05-06T02:18:43;12.30;99.90
30134;DHT22;16946;49.984;10.672;2023-05-06T02:19:15;12.30;99.90
30134;DHT22;16946;49.984;10.672;2023-05-06T02:19:45;12.20;99.90
30134;DHT22;16946;49.984;10.672;2023-05-06T02:20:16;12.20;99.90
30134;DHT22;16946;49.984;10.672;2023-05-06T02:20:47;12.30;99.90
30134;DHT22;16946;49.984;10.672;2023-05-06T02:21:17;12.30;99.90
30134;DHT22;16946;49.984;10.672;2023-05-06T02:21:48;12.30;99.90
30134;DHT22;16946;49.984;10.672;2023-05-06T02:22:18;12.30;99.90
30134;DHT22;16946;49.984;10.672;2023-05-06T02:22:49;12.40;99.90
30134;DHT22;16946;49.984;10.672;2023-05-06T02:23:20;12.40;99.90
30134;DHT22;16946;49.984;10.672;2023-05-06T02:23:50;12.40;99.90
30134;DHT22;16946;49.984;10.672;2023-05-06T02:24:21;12.50;99.90
30134;DHT22;16946;49.984;10.672;2023-05-06T02:24:51;12.60;99.90
30134;DHT22;16946;49.984;10.672;2023-05-06T02:25:22;12.60;99.90
30134;DHT22;16946;49.984;10.672;2023-05-06T02:25:52;12.60;99.90
30134;DHT22;16946;49.984;10.672;2023-05-06T02:26:23;12.60;99.90
30134;DHT22;16946;49.984;10.672;2023-05-06T02:26:54;12.60;99.90
30134;DHT22;16946;49.984;10.672;2023-05-06T02:27:24;12.60;99.90
30134;DHT22;16946;49.984;10.672;2023-05-06T02:27:55;12.50;99.90
30134;DHT22;16946;49.984;10.672;2023-05-06T02:28:26;12.50;99.90
30134;DHT22;16946;49.984;10.672;2023-05-06T02:28:56;12.60;99.90
30134;DHT22;16946;49.984;10.672;2023-05-06T02:29:27;12.50;99.90
30134;DHT22;16946;49.984;10.672;2023-05-06T02:29:57;12.60;99.90
30134;DHT22;16946;49.984;10.672;2023-05-06T02:30:28;12.60;99.90
30134;DHT22;16946;49.984;10.672;2023-05-06T02:31:02;12.60;99.90
30134;DHT22;16946;49.984;10.672;2023-05-06T02:31:32;12.60;99.90
30134;DHT22;16946;49.984;10.672;2023-05-06T02:32:03;12.60;99.90
30134;DHT22;16946;49.984;10.672;2023-05-06T02:32:33;12.70;99.90
30134;DHT22;16946;49.984;10.672;2023-05-06T02:33:05;12.70;99.90
30134;DHT22;16946;49.984;10.672;2023-05-06T02:33:35;12.70;99.90
30134;DHT22;16946;49.984;10.672;2023-05-06T02:34:07;12.70;99.90
30134;DHT22;16946;49.984;10.672;2023-05-06T02:34:38;12.70;99.90
30134;DHT22;16946;49.984;10.672;2023-05-06T02:35:09;12.80;99.90
30134;DHT22;16946;49.984;10.672;2023-05-06T02:35:39;12.80;99.90
30134;DHT22;16946;49.984;10.672;2023-05-06T02:36:10;12.80;99.90
30134;DHT22;16946;49.984;10.672;2023-05-06T02:36:40;12.80;99.90
30134;DHT22;16946;49.984;10.672;2023-05-06T02:37:11;12.80;99.90
30134;DHT22;16946;49.984;10.672;2023-05-06T02:37:42;12.80;99.90
30134;DHT22;16946;49.984;10.672;2023-05-06T02:38:12;12.80;99.90
30134;DHT22;16946;49.984;10.672;2023-05-06T02:38:43;12.80;99.90
30134;DHT22;16946;49.984;10.672;2023-05-06T02:39:13;12.80;99.90
30134;DHT22;16946;49.984;10.672;2023-05-06T02:39:44;12.80;99.90
30134;DHT22;16946;49.984;10.672;2023-05-06T02:40:14;12.80;99.90
30134;DHT22;16946;49.984;10.672;2023-05-06T02:40:45;12.80;99.90
30134;DHT22;16946;49.984;10.672;2023-05-06T02:41:16;12.80;99.90
30134;DHT22;16946;49.984;10.672;2023-05-06T02:41:46;12.80;99.90
30134;DHT22;16946;49.984;10.672;2023-05-06T02:42:17;12.80;99.90
30134;DHT22;16946;49.984;10.672;2023-05-06T02:42:47;12.80;99.90
30134;DHT22;16946;49.984;10.672;2023-05-06T02:43:18;12.80;99.90
30134;DHT22;16946;49.984;10.672;2023-05-06T02:43:48;12.80;99.90
30134;DHT22;16946;49.984;10.672;2023-05-06T02:44:19;12.70;99.90
30134;DHT22;16946;49.984;10.672;2023-05-06T02:44:49;12.70;99.90
30134;DHT22;16946;49.984;10.672;2023-05-06T02:45:20;12.70;99.90
30134;DHT22;16946;49.984;10.672;2023-05-06T02:45:51;12.70;99.90
30134;DHT22;16946;49.984;10.672;2023-05-06T02:46:21;12.70;99.90
30134;DHT22;16946;49.984;10.672;2023-05-06T02:46:52;12.70;99.90
30134;DHT22;16946;49.984;10.672;2023-05-06T02:47:23;12.70;99.90
30134;DHT22;16946;49.984;10.672;2023-05-06T02:47:53;12.70;99.90
30134;DHT22;16946;49.984;10.672;2023-05-06T02:48:24;12.70;99.90
30134;DHT22;16946;49.984;10.672;2023-05-06T02:48:54;12.70;99.90
30134;DHT22;16946;49.984;10.672;2023-05-06T02:49:25;12.70;99.90
30134;DHT22;16946;49.984;10.672;2023-05-06T02:49:55;12.80;99.90
30134;DHT22;16946;49.984;10.672;2023-05-06T02:50:26;12.90;99.90
30134;DHT22;16946;49.984;10.672;2023-05-06T02:50:57;12.90;99.90
30134;DHT22;16946;49.984;10.672;2023-05-06T02:51:27;12.90;99.90
30134;DHT22;16946;49.984;10.672;2023-05-06T02:51:58;12.90;99.90
30134;DHT22;16946;49.984;10.672;2023-05-06T02:52:28;12.90;99.90
30134;DHT22;16946;49.984;10.672;2023-05-06T02:52:59;13.00;99.90
30134;DHT22;16946;49.984;10.672;2023-05-06T02:53:29;13.00;99.90
30134;DHT22;16946;49.984;10.672;2023-05-06T02:53:59;13.00;99.90
30134;DHT22;16946;49.984;10.672;2023-05-06T02:54:30;13.00;99.90
30134;DHT22;16946;49.984;10.672;2023-05-06T02:55:01;13.00;99.90
30134;DHT22;16946;49.984;10.672;2023-05-06T02:55:31;13.00;99.90
30134;DHT22;16946;49.984;10.672;2023-05-06T02:56:02;13.00;99.90
30134;DHT22;16946;49.984;10.672;2023-05-06T02:56:32;12.90;99.90
30134;DHT22;16946;49.984;10.672;2023-05-06T02:57:04;13.00;99.90
30134;DHT22;16946;49.984;10.672;2023-05-06T02:57:34;13.00;99.90
30134;DHT22;16946;49.984;10.672;2023-05-06T02:58:05;13.10;99.90
30134;DHT22;16946;49.984;10.672;2023-05-06T02:58:36;13.10;99.90
30134;DHT22;16946;49.984;10.672;2023-05-06T02:59:06;13.10;99.90
30134;DHT22;16946;49.984;10.672;2023-05-06T02:59:37;13.10;99.90
30134;DHT22;16946;49.984;10.672;2023-05-06T03:00:08;13.10;99.90
30134;DHT22;16946;49.984;10.672;2023-05-06T03:00:40;13.10;99.90
30134;DHT22;16946;49.984;10.672;2023-05-06T03:01:10;13.00;99.90
30134;DHT22;16946;49.984;10.672;2023-05-06T03:01:41;13.10;99.90
30134;DHT22;16946;49.984;10.672;2023-05-06T03:02:11;13.10;99.90
30134;DHT22;16946;49.984;10.672;2023-05-06T03:02:42;13.10;99.90
30134;DHT22;16946;49.984;10.672;2023-05-06T03:03:12;13.10;99.90
30134;DHT22;16946;49.984;10.672;2023-05-06T03:03:43;13.10;99.90
30134;DHT22;16946;49.984;10.672;2023-05-06T03:04:13;13.20;99.90
30134;DHT22;16946;49.984;10.672;2023-05-06T03:04:44;13.20;99.90
30134;DHT22;16946;49.984;10.672;2023-05-06T03:05:15;13.20;99.90
30134;DHT22;16946;49.984;10.672;2023-05-06T03:05:45;13.20;99.90
30134;DHT22;16946;49.984;10.672;2023-05-06T03:06:16;13.20;99.90
30134;DHT22;16946;49.984;10.672;2023-05-06T03:06:46;13.20;99.90
30134;DHT22;16946;49.984;10.672;2023-05-06T03:07:17;13.20;99.90
30134;DHT22;16946;49.984;10.672;2023-05-06T03:07:47;13.20;99.90
30134;DHT22;16946;49.984;10.672;2023-05-06T03:08:18;13.20;99.90
30134;DHT22;16946;49.984;10.672;2023-05-06T03:08:48;13.20;99.90
30134;DHT22;16946;49.984;10.672;2023-05-06T03:09:19;13.20;99.90
30134;DHT22;16946;49.984;10.672;2023-05-06T03:09:49;13.20;99.90
30134;DHT22;16946;49.984;10.672;2023-05-06T03:10:20;13.20;99.90
30134;DHT22;16946;49.984;10.672;2023-05-06T03:10:50;13.20;99.90
30134;DHT22;16946;49.984;10.672;2023-05-06T03:11:21;13.20;99.90
30134;DHT22;16946;49.984;10.672;2023-05-06T03:11:52;13.20;99.90
30134;DHT22;16946;49.984;10.672;2023-05-06T03:12:22;13.20;99.90
30134;DHT22;16946;49.984;10.672;2023-05-06T03:12:53;13.20;99.90
30134;DHT22;16946;49.984;10.672;2023-05-06T03:13:23;13.20;99.90
30134;DHT22;16946;49.984;10.672;2023-05-06T03:13:54;13.20;99.90
30134;DHT22;16946;49.984;10.672;2023-05-06T03:14:24;13.30;99.90
30134;DHT22;16946;49.984;10.672;2023-05-06T03:14:55;13.30;99.90
30134;DHT22;16946;49.984;10.672;2023-05-06T03:15:26;13.30;99.90
30134;DHT22;16946;49.984;10.672;2023-05-06T03:15:57;13.20;99.90
30134;DHT22;16946;49.984;10.672;2023-05-06T03:16:28;13.20;99.90
30134;DHT22;16946;49.984;10.672;2023-05-06T03:16:58;13.20;99.90
30134;DHT22;16946;49.984;10.672;2023-05-06T03:17:29;13.10;99.90
30134;DHT22;16946;49.984;10.672;2023-05-06T03:17:59;13.10;99.90
30134;DHT22;16946;49.984;10.672;2023-05-06T03:18:30;13.10;99.90
30134;DHT22;16946;49.984;10.672;2023-05-06T03:19:00;13.10;99.90
30134;DHT22;16946;49.984;10.672;2023-05-06T03:19:32;13.20;99.90
30134;DHT22;16946;49.984;10.672;2023-05-06T03:20:04;13.20;99.90
30134;DHT22;16946;49.984;10.672;2023-05-06T03:20:35;13.20;99.90
30134;DHT22;16946;49.984;10.672;2023-05-06T03:21:06;13.20;99.90
30134;DHT22;16946;49.984;10.672;2023-05-06T03:21:36;13.10;99.90
30134;DHT22;16946;49.984;10.672;2023-05-06T03:22:07;13.10;99.90
30134;DHT22;16946;49.984;10.672;2023-05-06T03:22:38;13.00;99.90